sensor_id;sensor_type;location;lat;lon;timestamp;P1;durP1;ratioP1;P2;durP2;ratioP2
46439;SDS011;32138;50.966;6.968;2022-11-15T00:00:17;13.38;;;9.48;;
46439;SDS011;32138;50.966;6.968;2022-11-15T00:01:18;13.70;;;9.52;;
46439;SDS011;32138;50.966;6.968;2022-11-15T00:02:19;13.23;;;8.75;;
46439;SDS011;32138;50.966;6.968;2022-11-15T00:03:20;14.52;;;8.70;;
46439;SDS011;32138;50.966;6.968;2022-11-15T00:04:23;10.05;;;7.93;;
46439;SDS011;32138;50.966;6.968;2022-11-15T00:05:25;10.15;;;7.95;;
46439;SDS011;32138;50.966;6.968;2022-11-15T00:06:26;14.30;;;9.00;;
46439;SDS011;32138;50.966;6.968;2022-11-15T00:07:27;9.55;;;8.05;;
46439;SDS011;32138;50.966;6.968;2022-11-15T00:08:30;11.27;;;8.23;;
46439;SDS011;32138;50.966;6.968;2022-11-15T00:09:32;14.32;;;9.27;;
46439;SDS011;32138;50.966;6.968;2022-11-15T00:10:33;11.50;;;8.27;;
46439;SDS011;32138;50.966;6.968;2022-11-15T00:11:33;9.88;;;7.82;;
46439;SDS011;32138;50.966;6.968;2022-11-15T00:12:34;12.50;;;8.73;;
46439;SDS011;32138;50.966;6.968;2022-11-15T00:13:35;10.80;;;8.65;;
46439;SDS011;32138;50.966;6.968;2022-11-15T00:14:36;12.90;;;7.95;;
46439;SDS011;32138;50.966;6.968;2022-11-15T00:15:37;8.88;;;7.97;;
46439;SDS011;32138;50.966;6.968;2022-11-15T00:16:39;10.15;;;8.80;;
46439;SDS011;32138;50.966;6.968;2022-11-15T00:17:40;10.32;;;8.20;;
46439;SDS011;32138;50.966;6.968;2022-11-15T00:18:41;9.75;;;7.80;;
46439;SDS011;32138;50.966;6.968;2022-11-15T00:19:41;12.20;;;7.82;;
46439;SDS011;32138;50.966;6.968;2022-11-15T00:20:42;11.68;;;8.00;;
46439;SDS011;32138;50.966;6.968;2022-11-15T00:21:43;9.98;;;7.90;;
46439;SDS011;32138;50.966;6.968;2022-11-15T00:22:44;11.40;;;8.60;;
46439;SDS011;32138;50.966;6.968;2022-11-15T00:23:45;9.70;;;8.05;;
46439;SDS011;32138;50.966;6.968;2022-11-15T00:24:45;12.13;;;8.07;;
46439;SDS011;32138;50.966;6.968;2022-11-15T00:25:46;10.18;;;7.70;;
46439;SDS011;32138;50.966;6.968;2022-11-15T00:26:47;12.32;;;8.57;;
46439;SDS011;32138;50.966;6.968;2022-11-15T00:27:48;10.95;;;8.63;;
46439;SDS011;32138;50.966;6.968;2022-11-15T00:28:48;13.77;;;8.82;;
46439;SDS011;32138;50.966;6.968;2022-11-15T00:29:52;11.50;;;7.55;;
46439;SDS011;32138;50.966;6.968;2022-11-15T00:30:53;13.73;;;8.68;;
46439;SDS011;32138;50.966;6.968;2022-11-15T00:32:00;11.30;;;7.15;;
46439;SDS011;32138;50.966;6.968;2022-11-15T00:33:01;10.13;;;7.85;;
46439;SDS011;32138;50.966;6.968;2022-11-15T00:34:06;10.85;;;7.50;;
46439;SDS011;32138;50.966;6.968;2022-11-15T00:35:06;9.10;;;8.10;;
46439;SDS011;32138;50.966;6.968;2022-11-15T00:36:08;10.30;;;8.30;;
46439;SDS011;32138;50.966;6.968;2022-11-15T00:37:10;11.38;;;7.72;;
46439;SDS011;32138;50.966;6.968;2022-11-15T00:38:11;9.65;;;7.60;;
46439;SDS011;32138;50.966;6.968;2022-11-15T00:39:12;11.20;;;7.55;;
46439;SDS011;32138;50.966;6.968;2022-11-15T00:40:12;10.73;;;7.68;;
46439;SDS011;32138;50.966;6.968;2022-11-15T00:41:14;11.93;;;7.43;;
46439;SDS011;32138;50.966;6.968;2022-11-15T00:42:15;11.55;;;7.75;;
46439;SDS011;32138;50.966;6.968;2022-11-15T00:43:16;11.50;;;8.10;;
46439;SDS011;32138;50.966;6.968;2022-11-15T00:44:16;10.23;;;7.78;;
46439;SDS011;32138;50.966;6.968;2022-11-15T00:45:17;14.48;;;8.63;;
46439;SDS011;32138;50.966;6.968;2022-11-15T00:46:18;9.23;;;8.23;;
46439;SDS011;32138;50.966;6.968;2022-11-15T00:47:19;9.57;;;7.15;;
46439;SDS011;32138;50.966;6.968;2022-11-15T00:48:19;10.73;;;8.18;;
46439;SDS011;32138;50.966;6.968;2022-11-15T00:49:20;8.52;;;7.55;;
46439;SDS011;32138;50.966;6.968;2022-11-15T00:50:21;12.63;;;7.93;;
46439;SDS011;32138;50.966;6.968;2022-11-15T00:51:21;13.10;;;7.93;;
46439;SDS011;32138;50.966;6.968;2022-11-15T00:52:22;10.48;;;7.95;;
46439;SDS011;32138;50.966;6.968;2022-11-15T00:53:23;9.52;;;7.53;;
46439;SDS011;32138;50.966;6.968;2022-11-15T00:54:24;11.05;;;8.02;;
46439;SDS011;32138;50.966;6.968;2022-11-15T00:55:24;13.07;;;8.45;;
46439;SDS011;32138;50.966;6.968;2022-11-15T00:56:25;12.63;;;9.32;;
46439;SDS011;32138;50.966;6.968;2022-11-15T00:57:26;10.80;;;8.52;;
46439;SDS011;32138;50.966;6.968;2022-11-15T00:58:26;14.18;;;8.65;;
46439;SDS011;32138;50.966;6.968;2022-11-15T00:59:27;12.32;;;8.20;;
46439;SDS011;32138;50.966;6.968;2022-11-15T01:00:28;10.45;;;7.32;;
46439;SDS011;32138;50.966;6.968;2022-11-15T01:01:29;12.07;;;8.45;;
46439;SDS011;32138;50.966;6.968;2022-11-15T01:02:29;9.90;;;7.18;;
46439;SDS011;32138;50.966;6.968;2022-11-15T01:03:32;13.68;;;7.90;;
46439;SDS011;32138;50.966;6.968;2022-11-15T01:04:34;11.00;;;7.97;;
46439;SDS011;32138;50.966;6.968;2022-11-15T01:05:36;12.60;;;7.93;;
46439;SDS011;32138;50.966;6.968;2022-11-15T01:06:38;12.40;;;8.50;;
46439;SDS011;32138;50.966;6.968;2022-11-15T01:07:38;12.90;;;8.13;;
46439;SDS011;32138;50.966;6.968;2022-11-15T01:08:39;11.43;;;8.30;;
46439;SDS011;32138;50.966;6.968;2022-11-15T01:09:40;12.43;;;7.28;;
46439;SDS011;32138;50.966;6.968;2022-11-15T01:10:41;13.50;;;8.57;;
46439;SDS011;32138;50.966;6.968;2022-11-15T01:11:42;10.90;;;8.05;;
46439;SDS011;32138;50.966;6.968;2022-11-15T01:12:43;12.23;;;8.70;;
46439;SDS011;32138;50.966;6.968;2022-11-15T01:13:43;13.07;;;8.55;;
46439;SDS011;32138;50.966;6.968;2022-11-15T01:14:44;11.63;;;7.50;;
46439;SDS011;32138;50.966;6.968;2022-11-15T01:15:45;14.27;;;8.23;;
46439;SDS011;32138;50.966;6.968;2022-11-15T01:16:46;11.50;;;8.25;;
46439;SDS011;32138;50.966;6.968;2022-11-15T01:17:46;12.15;;;8.68;;
46439;SDS011;32138;50.966;6.968;2022-11-15T01:18:47;9.32;;;7.65;;
46439;SDS011;32138;50.966;6.968;2022-11-15T01:19:48;12.15;;;8.20;;
46439;SDS011;32138;50.966;6.968;2022-11-15T01:20:49;15.48;;;8.63;;
46439;SDS011;32138;50.966;6.968;2022-11-15T01:21:49;11.82;;;8.90;;
46439;SDS011;32138;50.966;6.968;2022-11-15T01:22:50;14.85;;;8.27;;
46439;SDS011;32138;50.966;6.968;2022-11-15T01:23:54;11.02;;;7.80;;
46439;SDS011;32138;50.966;6.968;2022-11-15T01:24:56;11.30;;;8.50;;
46439;SDS011;32138;50.966;6.968;2022-11-15T01:26:01;13.82;;;8.40;;
46439;SDS011;32138;50.966;6.968;2022-11-15T01:27:03;9.93;;;8.30;;
46439;SDS011;32138;50.966;6.968;2022-11-15T01:28:04;12.68;;;8.55;;
46439;SDS011;32138;50.966;6.968;2022-11-15T01:29:05;10.68;;;8.13;;
46439;SDS011;32138;50.966;6.968;2022-11-15T01:30:06;12.52;;;8.63;;
46439;SDS011;32138;50.966;6.968;2022-11-15T01:31:18;12.80;;;7.60;;
46439;SDS011;32138;50.966;6.968;2022-11-15T01:32:21;12.52;;;9.30;;
46439;SDS011;32138;50.966;6.968;2022-11-15T01:33:22;13.77;;;8.63;;
46439;SDS011;32138;50.966;6.968;2022-11-15T01:34:22;13.05;;;8.75;;
46439;SDS011;32138;50.966;6.968;2022-11-15T01:35:23;15.07;;;8.98;;
46439;SDS011;32138;50.966;6.968;2022-11-15T01:36:24;12.23;;;8.55;;
46439;SDS011;32138;50.966;6.968;2022-11-15T01:37:25;10.27;;;8.05;;
46439;SDS011;32138;50.966;6.968;2022-11-15T01:38:25;11.77;;;8.05;;
46439;SDS011;32138;50.966;6.968;2022-11-15T01:39:26;11.63;;;8.18;;
46439;SDS011;32138;50.966;6.968;2022-11-15T01:40:27;10.18;;;8.07;;
46439;SDS011;32138;50.966;6.968;2022-11-15T01:41:29;10.80;;;7.95;;
46439;SDS011;32138;50.966;6.968;2022-11-15T01:42:32;12.45;;;8.93;;
46439;SDS011;32138;50.966;6.968;2022-11-15T01:43:36;11.90;;;8.43;;
46439;SDS011;32138;50.966;6.968;2022-11-15T01:45:39;13.63;;;8.38;;
46439;SDS011;32138;50.966;6.968;2022-11-15T01:46:40;11.57;;;8.10;;
46439;SDS011;32138;50.966;6.968;2022-11-15T01:47:51;15.55;;;7.53;;
46439;SDS011;32138;50.966;6.968;2022-11-15T01:48:54;11.13;;;8.27;;
46439;SDS011;32138;50.966;6.968;2022-11-15T01:49:59;13.98;;;8.90;;
46439;SDS011;32138;50.966;6.968;2022-11-15T01:51:06;10.40;;;7.90;;
46439;SDS011;32138;50.966;6.968;2022-11-15T01:52:12;12.88;;;8.55;;
46439;SDS011;32138;50.966;6.968;2022-11-15T01:53:18;12.65;;;8.85;;
46439;SDS011;32138;50.966;6.968;2022-11-15T01:54:21;13.20;;;8.43;;
46439;SDS011;32138;50.966;6.968;2022-11-15T01:55:25;10.82;;;9.07;;
46439;SDS011;32138;50.966;6.968;2022-11-15T01:56:27;16.45;;;10.02;;
46439;SDS011;32138;50.966;6.968;2022-11-15T01:57:35;13.40;;;8.55;;
46439;SDS011;32138;50.966;6.968;2022-11-15T01:58:37;14.27;;;9.23;;
46439;SDS011;32138;50.966;6.968;2022-11-15T01:59:40;10.57;;;8.73;;
46439;SDS011;32138;50.966;6.968;2022-11-15T02:00:44;13.15;;;8.65;;
46439;SDS011;32138;50.966;6.968;2022-11-15T02:01:45;12.90;;;8.23;;
46439;SDS011;32138;50.966;6.968;2022-11-15T02:02:46;15.48;;;9.27;;
46439;SDS011;32138;50.966;6.968;2022-11-15T02:03:59;11.85;;;9.23;;
46439;SDS011;32138;50.966;6.968;2022-11-15T02:05:11;10.75;;;9.23;;
46439;SDS011;32138;50.966;6.968;2022-11-15T02:06:12;12.95;;;9.20;;
46439;SDS011;32138;50.966;6.968;2022-11-15T02:07:17;13.32;;;9.02;;
46439;SDS011;32138;50.966;6.968;2022-11-15T02:08:20;13.55;;;9.45;;
46439;SDS011;32138;50.966;6.968;2022-11-15T02:09:20;12.25;;;8.90;;
46439;SDS011;32138;50.966;6.968;2022-11-15T02:10:22;10.57;;;8.98;;
46439;SDS011;32138;50.966;6.968;2022-11-15T02:11:25;13.70;;;9.32;;
46439;SDS011;32138;50.966;6.968;2022-11-15T02:12:26;11.50;;;9.57;;
46439;SDS011;32138;50.966;6.968;2022-11-15T02:13:27;12.63;;;8.98;;
46439;SDS011;32138;50.966;6.968;2022-11-15T02:14:28;12.88;;;8.52;;
46439;SDS011;32138;50.966;6.968;2022-11-15T02:15:31;14.00;;;9.18;;
46439;SDS011;32138;50.966;6.968;2022-11-15T02:18:16;12.48;;;8.73;;
46439;SDS011;32138;50.966;6.968;2022-11-15T02:21:22;13.98;;;8.57;;
46439;SDS011;32138;50.966;6.968;2022-11-15T02:24:02;11.35;;;8.68;;
46439;SDS011;32138;50.966;6.968;2022-11-15T02:26:06;8.75;;;7.13;;
46439;SDS011;32138;50.966;6.968;2022-11-15T02:28:41;11.73;;;8.48;;
46439;SDS011;32138;50.966;6.968;2022-11-15T02:32:03;12.70;;;8.68;;
46439;SDS011;32138;50.966;6.968;2022-11-15T02:36:02;11.73;;;7.82;;
46439;SDS011;32138;50.966;6.968;2022-11-15T02:37:15;10.38;;;8.60;;
46439;SDS011;32138;50.966;6.968;2022-11-15T02:41:30;11.88;;;8.45;;
46439;SDS011;32138;50.966;6.968;2022-11-15T02:42:49;11.07;;;8.80;;
46439;SDS011;32138;50.966;6.968;2022-11-15T02:44:26;10.60;;;7.88;;
46439;SDS011;32138;50.966;6.968;2022-11-15T02:45:35;11.93;;;8.25;;
46439;SDS011;32138;50.966;6.968;2022-11-15T02:46:41;11.23;;;7.85;;
46439;SDS011;32138;50.966;6.968;2022-11-15T02:48:14;10.57;;;8.32;;
46439;SDS011;32138;50.966;6.968;2022-11-15T02:49:16;14.50;;;8.45;;
46439;SDS011;32138;50.966;6.968;2022-11-15T02:50:20;13.32;;;8.02;;
46439;SDS011;32138;50.966;6.968;2022-11-15T02:51:25;11.70;;;9.05;;
46439;SDS011;32138;50.966;6.968;2022-11-15T02:52:26;9.18;;;7.47;;
46439;SDS011;32138;50.966;6.968;2022-11-15T02:53:26;13.50;;;8.55;;
46439;SDS011;32138;50.966;6.968;2022-11-15T02:54:31;11.63;;;8.27;;
46439;SDS011;32138;50.966;6.968;2022-11-15T02:55:35;11.32;;;7.63;;
46439;SDS011;32138;50.966;6.968;2022-11-15T02:56:41;10.20;;;7.95;;
46439;SDS011;32138;50.966;6.968;2022-11-15T02:59:13;12.60;;;8.63;;
46439;SDS011;32138;50.966;6.968;2022-11-15T03:00:43;10.73;;;7.35;;
46439;SDS011;32138;50.966;6.968;2022-11-15T03:03:49;11.18;;;7.25;;
46439;SDS011;32138;50.966;6.968;2022-11-15T03:04:58;10.38;;;8.10;;
46439;SDS011;32138;50.966;6.968;2022-11-15T03:06:27;11.60;;;7.97;;
46439;SDS011;32138;50.966;6.968;2022-11-15T03:10:45;12.98;;;7.90;;
46439;SDS011;32138;50.966;6.968;2022-11-15T03:11:59;12.85;;;7.93;;
46439;SDS011;32138;50.966;6.968;2022-11-15T03:14:14;12.07;;;8.07;;
46439;SDS011;32138;50.966;6.968;2022-11-15T03:16:44;12.52;;;8.15;;
46439;SDS011;32138;50.966;6.968;2022-11-15T03:19:46;9.35;;;6.97;;
46439;SDS011;32138;50.966;6.968;2022-11-15T03:20:50;10.43;;;7.15;;
46439;SDS011;32138;50.966;6.968;2022-11-15T03:21:52;13.10;;;7.53;;
46439;SDS011;32138;50.966;6.968;2022-11-15T03:23:01;11.02;;;7.30;;
46439;SDS011;32138;50.966;6.968;2022-11-15T03:25:09;9.05;;;7.38;;
46439;SDS011;32138;50.966;6.968;2022-11-15T03:26:16;8.73;;;6.75;;
46439;SDS011;32138;50.966;6.968;2022-11-15T03:27:23;10.10;;;5.90;;
46439;SDS011;32138;50.966;6.968;2022-11-15T03:28:31;8.18;;;6.70;;
46439;SDS011;32138;50.966;6.968;2022-11-15T03:29:44;8.85;;;6.95;;
46439;SDS011;32138;50.966;6.968;2022-11-15T03:30:51;7.07;;;5.97;;
46439;SDS011;32138;50.966;6.968;2022-11-15T03:31:56;9.95;;;6.45;;
46439;SDS011;32138;50.966;6.968;2022-11-15T03:33:03;8.10;;;6.60;;
46439;SDS011;32138;50.966;6.968;2022-11-15T03:34:05;9.20;;;6.32;;
46439;SDS011;32138;50.966;6.968;2022-11-15T03:35:12;8.95;;;6.57;;
46439;SDS011;32138;50.966;6.968;2022-11-15T03:36:27;8.07;;;6.28;;
46439;SDS011;32138;50.966;6.968;2022-11-15T03:37:40;7.75;;;6.40;;
46439;SDS011;32138;50.966;6.968;2022-11-15T03:39:07;9.63;;;6.25;;
46439;SDS011;32138;50.966;6.968;2022-11-15T03:40:09;10.38;;;6.15;;
46439;SDS011;32138;50.966;6.968;2022-11-15T03:41:14;10.18;;;6.30;;
46439;SDS011;32138;50.966;6.968;2022-11-15T03:42:33;8.80;;;6.30;;
46439;SDS011;32138;50.966;6.968;2022-11-15T03:43:46;9.80;;;5.63;;
46439;SDS011;32138;50.966;6.968;2022-11-15T03:46:33;9.13;;;6.40;;
46439;SDS011;32138;50.966;6.968;2022-11-15T03:47:42;11.30;;;6.32;;
46439;SDS011;32138;50.966;6.968;2022-11-15T03:49:30;10.27;;;6.63;;
46439;SDS011;32138;50.966;6.968;2022-11-15T03:50:27;10.02;;;6.72;;
46439;SDS011;32138;50.966;6.968;2022-11-15T03:51:29;8.40;;;6.15;;
46439;SDS011;32138;50.966;6.968;2022-11-15T03:52:31;9.52;;;6.38;;
46439;SDS011;32138;50.966;6.968;2022-11-15T03:53:34;10.75;;;6.28;;
46439;SDS011;32138;50.966;6.968;2022-11-15T03:54:34;9.65;;;6.18;;
46439;SDS011;32138;50.966;6.968;2022-11-15T03:55:35;8.68;;;6.78;;
46439;SDS011;32138;50.966;6.968;2022-11-15T03:56:36;8.30;;;6.50;;
46439;SDS011;32138;50.966;6.968;2022-11-15T03:57:37;9.10;;;6.57;;
46439;SDS011;32138;50.966;6.968;2022-11-15T03:58:37;8.77;;;6.70;;
46439;SDS011;32138;50.966;6.968;2022-11-15T03:59:38;7.47;;;6.07;;
46439;SDS011;32138;50.966;6.968;2022-11-15T04:00:39;9.18;;;6.53;;
46439;SDS011;32138;50.966;6.968;2022-11-15T04:01:39;9.25;;;7.22;;
46439;SDS011;32138;50.966;6.968;2022-11-15T04:02:40;9.23;;;7.00;;
46439;SDS011;32138;50.966;6.968;2022-11-15T04:03:41;8.25;;;6.47;;
46439;SDS011;32138;50.966;6.968;2022-11-15T04:04:42;8.23;;;6.13;;
46439;SDS011;32138;50.966;6.968;2022-11-15T04:05:42;7.28;;;6.57;;
46439;SDS011;32138;50.966;6.968;2022-11-15T04:06:43;8.25;;;7.05;;
46439;SDS011;32138;50.966;6.968;2022-11-15T04:07:44;10.02;;;6.38;;
46439;SDS011;32138;50.966;6.968;2022-11-15T04:08:44;10.10;;;6.55;;
46439;SDS011;32138;50.966;6.968;2022-11-15T04:09:45;8.10;;;6.35;;
46439;SDS011;32138;50.966;6.968;2022-11-15T04:11:05;10.80;;;7.25;;
46439;SDS011;32138;50.966;6.968;2022-11-15T04:12:06;8.55;;;6.43;;
46439;SDS011;32138;50.966;6.968;2022-11-15T04:13:06;7.53;;;6.70;;
46439;SDS011;32138;50.966;6.968;2022-11-15T04:14:07;8.25;;;6.88;;
46439;SDS011;32138;50.966;6.968;2022-11-15T04:16:11;10.48;;;7.20;;
46439;SDS011;32138;50.966;6.968;2022-11-15T04:17:12;8.57;;;6.65;;
46439;SDS011;32138;50.966;6.968;2022-11-15T04:18:12;8.85;;;6.72;;
46439;SDS011;32138;50.966;6.968;2022-11-15T04:19:13;8.65;;;7.07;;
46439;SDS011;32138;50.966;6.968;2022-11-15T04:20:32;11.30;;;7.50;;
46439;SDS011;32138;50.966;6.968;2022-11-15T04:21:51;8.50;;;6.60;;
46439;SDS011;32138;50.966;6.968;2022-11-15T04:24:35;9.02;;;7.18;;
46439;SDS011;32138;50.966;6.968;2022-11-15T04:25:36;11.05;;;7.15;;
46439;SDS011;32138;50.966;6.968;2022-11-15T04:26:37;8.45;;;6.68;;
46439;SDS011;32138;50.966;6.968;2022-11-15T04:27:37;8.68;;;6.95;;
46439;SDS011;32138;50.966;6.968;2022-11-15T04:28:38;9.90;;;7.15;;
46439;SDS011;32138;50.966;6.968;2022-11-15T04:29:59;9.20;;;6.85;;
46439;SDS011;32138;50.966;6.968;2022-11-15T04:31:00;9.25;;;6.55;;
46439;SDS011;32138;50.966;6.968;2022-11-15T04:32:01;8.70;;;7.80;;
46439;SDS011;32138;50.966;6.968;2022-11-15T04:33:03;10.45;;;7.28;;
46439;SDS011;32138;50.966;6.968;2022-11-15T04:34:04;9.23;;;7.07;;
46439;SDS011;32138;50.966;6.968;2022-11-15T04:35:05;8.63;;;6.80;;
46439;SDS011;32138;50.966;6.968;2022-11-15T04:36:06;7.68;;;6.85;;
46439;SDS011;32138;50.966;6.968;2022-11-15T04:37:25;11.30;;;7.28;;
46439;SDS011;32138;50.966;6.968;2022-11-15T04:38:26;11.70;;;8.00;;
46439;SDS011;32138;50.966;6.968;2022-11-15T04:39:27;8.68;;;6.88;;
46439;SDS011;32138;50.966;6.968;2022-11-15T04:40:27;9.63;;;6.97;;
46439;SDS011;32138;50.966;6.968;2022-11-15T04:41:28;9.05;;;7.25;;
46439;SDS011;32138;50.966;6.968;2022-11-15T04:42:29;8.68;;;7.25;;
46439;SDS011;32138;50.966;6.968;2022-11-15T04:43:30;9.68;;;6.28;;
46439;SDS011;32138;50.966;6.968;2022-11-15T04:44:30;7.60;;;6.80;;
46439;SDS011;32138;50.966;6.968;2022-11-15T04:45:31;11.23;;;7.13;;
46439;SDS011;32138;50.966;6.968;2022-11-15T04:46:32;7.82;;;6.75;;
46439;SDS011;32138;50.966;6.968;2022-11-15T04:47:33;8.52;;;7.20;;
46439;SDS011;32138;50.966;6.968;2022-11-15T04:48:33;10.25;;;7.00;;
46439;SDS011;32138;50.966;6.968;2022-11-15T04:49:34;10.57;;;6.90;;
46439;SDS011;32138;50.966;6.968;2022-11-15T04:50:35;9.55;;;7.20;;
46439;SDS011;32138;50.966;6.968;2022-11-15T04:51:35;10.77;;;7.10;;
46439;SDS011;32138;50.966;6.968;2022-11-15T04:52:36;9.57;;;6.40;;
46439;SDS011;32138;50.966;6.968;2022-11-15T04:53:37;10.38;;;6.78;;
46439;SDS011;32138;50.966;6.968;2022-11-15T04:54:38;7.43;;;6.63;;
46439;SDS011;32138;50.966;6.968;2022-11-15T04:55:39;10.95;;;7.70;;
46439;SDS011;32138;50.966;6.968;2022-11-15T04:56:40;7.40;;;6.47;;
46439;SDS011;32138;50.966;6.968;2022-11-15T04:57:40;8.85;;;6.60;;
46439;SDS011;32138;50.966;6.968;2022-11-15T04:58:41;8.68;;;6.65;;
46439;SDS011;32138;50.966;6.968;2022-11-15T04:59:42;8.00;;;6.75;;
46439;SDS011;32138;50.966;6.968;2022-11-15T05:00:42;8.27;;;7.10;;
46439;SDS011;32138;50.966;6.968;2022-11-15T05:01:43;7.13;;;6.43;;
46439;SDS011;32138;50.966;6.968;2022-11-15T05:02:44;8.52;;;6.63;;
46439;SDS011;32138;50.966;6.968;2022-11-15T05:04:03;10.18;;;6.90;;
46439;SDS011;32138;50.966;6.968;2022-11-15T05:05:19;7.60;;;6.45;;
46439;SDS011;32138;50.966;6.968;2022-11-15T05:06:20;8.88;;;6.30;;
46439;SDS011;32138;50.966;6.968;2022-11-15T05:07:20;7.45;;;5.72;;
46439;SDS011;32138;50.966;6.968;2022-11-15T05:08:22;8.48;;;6.53;;
46439;SDS011;32138;50.966;6.968;2022-11-15T05:09:23;9.15;;;7.05;;
46439;SDS011;32138;50.966;6.968;2022-11-15T05:10:24;8.05;;;7.18;;
46439;SDS011;32138;50.966;6.968;2022-11-15T05:11:24;6.95;;;6.25;;
46439;SDS011;32138;50.966;6.968;2022-11-15T05:12:27;7.90;;;6.20;;
46439;SDS011;32138;50.966;6.968;2022-11-15T05:13:27;7.03;;;6.03;;
46439;SDS011;32138;50.966;6.968;2022-11-15T05:14:28;6.55;;;5.90;;
46439;SDS011;32138;50.966;6.968;2022-11-15T05:15:29;8.38;;;6.90;;
46439;SDS011;32138;50.966;6.968;2022-11-15T05:16:29;8.50;;;6.18;;
46439;SDS011;32138;50.966;6.968;2022-11-15T05:17:30;8.70;;;6.43;;
46439;SDS011;32138;50.966;6.968;2022-11-15T05:18:31;8.10;;;6.15;;
46439;SDS011;32138;50.966;6.968;2022-11-15T05:19:32;9.10;;;6.85;;
46439;SDS011;32138;50.966;6.968;2022-11-15T05:20:32;7.55;;;6.22;;
46439;SDS011;32138;50.966;6.968;2022-11-15T05:21:33;7.72;;;5.90;;
46439;SDS011;32138;50.966;6.968;2022-11-15T05:22:35;7.20;;;5.82;;
46439;SDS011;32138;50.966;6.968;2022-11-15T05:23:36;7.78;;;5.95;;
46439;SDS011;32138;50.966;6.968;2022-11-15T05:24:38;8.27;;;5.95;;
46439;SDS011;32138;50.966;6.968;2022-11-15T05:25:38;7.97;;;5.88;;
46439;SDS011;32138;50.966;6.968;2022-11-15T05:26:39;9.00;;;6.07;;
46439;SDS011;32138;50.966;6.968;2022-11-15T05:27:40;8.52;;;5.45;;
46439;SDS011;32138;50.966;6.968;2022-11-15T05:28:41;7.65;;;6.57;;
46439;SDS011;32138;50.966;6.968;2022-11-15T05:29:41;6.60;;;5.47;;
46439;SDS011;32138;50.966;6.968;2022-11-15T05:30:42;7.32;;;5.03;;
46439;SDS011;32138;50.966;6.968;2022-11-15T05:31:43;8.10;;;5.97;;
46439;SDS011;32138;50.966;6.968;2022-11-15T05:32:44;8.23;;;5.70;;
46439;SDS011;32138;50.966;6.968;2022-11-15T05:33:45;6.63;;;5.93;;
46439;SDS011;32138;50.966;6.968;2022-11-15T05:34:46;8.88;;;6.30;;
46439;SDS011;32138;50.966;6.968;2022-11-15T05:35:48;6.88;;;5.60;;
46439;SDS011;32138;50.966;6.968;2022-11-15T05:36:56;8.45;;;6.30;;
46439;SDS011;32138;50.966;6.968;2022-11-15T05:37:57;6.00;;;5.20;;
46439;SDS011;32138;50.966;6.968;2022-11-15T05:38:58;9.80;;;6.40;;
46439;SDS011;32138;50.966;6.968;2022-11-15T05:39:59;5.90;;;5.22;;
46439;SDS011;32138;50.966;6.968;2022-11-15T05:41:00;8.65;;;5.45;;
46439;SDS011;32138;50.966;6.968;2022-11-15T05:42:04;5.93;;;5.28;;
46439;SDS011;32138;50.966;6.968;2022-11-15T05:43:13;6.20;;;5.18;;
46439;SDS011;32138;50.966;6.968;2022-11-15T05:44:14;7.25;;;5.75;;
46439;SDS011;32138;50.966;6.968;2022-11-15T05:45:21;10.07;;;5.85;;
46439;SDS011;32138;50.966;6.968;2022-11-15T05:46:22;5.93;;;5.15;;
46439;SDS011;32138;50.966;6.968;2022-11-15T05:47:23;8.57;;;5.20;;
46439;SDS011;32138;50.966;6.968;2022-11-15T05:48:27;7.65;;;5.30;;
46439;SDS011;32138;50.966;6.968;2022-11-15T05:49:30;6.55;;;5.40;;
46439;SDS011;32138;50.966;6.968;2022-11-15T05:50:35;8.98;;;6.07;;
46439;SDS011;32138;50.966;6.968;2022-11-15T05:51:39;7.30;;;5.75;;
46439;SDS011;32138;50.966;6.968;2022-11-15T05:52:41;7.15;;;5.75;;
46439;SDS011;32138;50.966;6.968;2022-11-15T05:53:42;7.32;;;5.32;;
46439;SDS011;32138;50.966;6.968;2022-11-15T05:54:44;5.57;;;4.53;;
46439;SDS011;32138;50.966;6.968;2022-11-15T05:55:45;6.45;;;4.85;;
46439;SDS011;32138;50.966;6.968;2022-11-15T05:56:46;7.32;;;5.45;;
46439;SDS011;32138;50.966;6.968;2022-11-15T05:57:47;9.23;;;6.43;;
46439;SDS011;32138;50.966;6.968;2022-11-15T05:58:48;6.72;;;5.53;;
46439;SDS011;32138;50.966;6.968;2022-11-15T05:59:48;6.43;;;5.00;;
46439;SDS011;32138;50.966;6.968;2022-11-15T06:00:49;7.28;;;5.70;;
46439;SDS011;32138;50.966;6.968;2022-11-15T06:01:50;7.20;;;5.22;;
46439;SDS011;32138;50.966;6.968;2022-11-15T06:02:51;5.68;;;5.05;;
46439;SDS011;32138;50.966;6.968;2022-11-15T06:03:51;7.93;;;5.65;;
46439;SDS011;32138;50.966;6.968;2022-11-15T06:04:52;7.18;;;5.50;;
46439;SDS011;32138;50.966;6.968;2022-11-15T06:05:53;6.38;;;5.03;;
46439;SDS011;32138;50.966;6.968;2022-11-15T06:06:54;5.78;;;5.15;;
46439;SDS011;32138;50.966;6.968;2022-11-15T06:07:58;6.18;;;5.07;;
46439;SDS011;32138;50.966;6.968;2022-11-15T06:08:59;6.95;;;5.10;;
46439;SDS011;32138;50.966;6.968;2022-11-15T06:10:00;6.47;;;5.03;;
46439;SDS011;32138;50.966;6.968;2022-11-15T06:11:06;7.38;;;5.00;;
46439;SDS011;32138;50.966;6.968;2022-11-15T06:12:07;6.32;;;5.35;;
46439;SDS011;32138;50.966;6.968;2022-11-15T06:13:08;6.72;;;5.55;;
46439;SDS011;32138;50.966;6.968;2022-11-15T06:14:09;6.95;;;5.15;;
46439;SDS011;32138;50.966;6.968;2022-11-15T06:15:09;5.97;;;5.13;;
46439;SDS011;32138;50.966;6.968;2022-11-15T06:16:10;8.13;;;5.57;;
46439;SDS011;32138;50.966;6.968;2022-11-15T06:17:11;8.93;;;5.90;;
46439;SDS011;32138;50.966;6.968;2022-11-15T06:18:12;5.13;;;4.63;;
46439;SDS011;32138;50.966;6.968;2022-11-15T06:19:12;9.07;;;5.07;;
46439;SDS011;32138;50.966;6.968;2022-11-15T06:20:13;8.00;;;4.60;;
46439;SDS011;32138;50.966;6.968;2022-11-15T06:21:14;8.10;;;4.93;;
46439;SDS011;32138;50.966;6.968;2022-11-15T06:22:15;5.90;;;4.65;;
46439;SDS011;32138;50.966;6.968;2022-11-15T06:23:16;6.22;;;4.13;;
46439;SDS011;32138;50.966;6.968;2022-11-15T06:24:17;4.90;;;4.07;;
46439;SDS011;32138;50.966;6.968;2022-11-15T06:25:18;4.90;;;4.20;;
46439;SDS011;32138;50.966;6.968;2022-11-15T06:26:19;7.55;;;4.50;;
46439;SDS011;32138;50.966;6.968;2022-11-15T06:27:20;6.60;;;4.30;;
46439;SDS011;32138;50.966;6.968;2022-11-15T06:28:20;6.43;;;4.53;;
46439;SDS011;32138;50.966;6.968;2022-11-15T06:29:21;5.80;;;4.43;;
46439;SDS011;32138;50.966;6.968;2022-11-15T06:30:22;6.70;;;4.63;;
46439;SDS011;32138;50.966;6.968;2022-11-15T06:31:25;5.50;;;4.65;;
46439;SDS011;32138;50.966;6.968;2022-11-15T06:32:25;7.05;;;4.50;;
46439;SDS011;32138;50.966;6.968;2022-11-15T06:33:26;5.72;;;3.92;;
46439;SDS011;32138;50.966;6.968;2022-11-15T06:34:27;6.32;;;3.85;;
46439;SDS011;32138;50.966;6.968;2022-11-15T06:35:28;5.88;;;4.50;;
46439;SDS011;32138;50.966;6.968;2022-11-15T06:36:30;4.50;;;3.75;;
46439;SDS011;32138;50.966;6.968;2022-11-15T06:37:30;6.93;;;4.00;;
46439;SDS011;32138;50.966;6.968;2022-11-15T06:38:31;5.88;;;4.05;;
46439;SDS011;32138;50.966;6.968;2022-11-15T06:39:32;6.35;;;3.95;;
46439;SDS011;32138;50.966;6.968;2022-11-15T06:40:33;9.05;;;4.75;;
46439;SDS011;32138;50.966;6.968;2022-11-15T06:41:36;5.75;;;3.83;;
46439;SDS011;32138;50.966;6.968;2022-11-15T06:42:36;9.48;;;3.80;;
46439;SDS011;32138;50.966;6.968;2022-11-15T06:43:37;4.88;;;3.42;;
46439;SDS011;32138;50.966;6.968;2022-11-15T06:44:39;6.28;;;4.13;;
46439;SDS011;32138;50.966;6.968;2022-11-15T06:45:40;5.20;;;3.88;;
46439;SDS011;32138;50.966;6.968;2022-11-15T06:46:40;7.35;;;3.92;;
46439;SDS011;32138;50.966;6.968;2022-11-15T06:47:45;5.05;;;3.60;;
46439;SDS011;32138;50.966;6.968;2022-11-15T06:48:46;4.82;;;3.42;;
46439;SDS011;32138;50.966;6.968;2022-11-15T06:49:49;7.05;;;3.63;;
46439;SDS011;32138;50.966;6.968;2022-11-15T06:50:50;3.90;;;3.30;;